sensor_id;sensor_type;location;lat;lon;timestamp;pressure;altitude;pressure_sealevel;temperature;humidity
69780;BME280;57052;55.602;38.096;2023-01-15T00:01:45;101164.13;;;0.07;70.83
69780;BME280;57052;55.602;38.096;2023-01-15T00:04:11;101153.19;;;0.02;70.83
69780;BME280;57052;55.602;38.096;2023-01-15T00:06:39;101155.94;;;0.08;70.70
69780;BME280;57052;55.602;38.096;2023-01-15T00:09:06;101159.16;;;0.04;70.83
69780;BME280;57052;55.602;38.096;2023-01-15T00:11:32;101136.16;;;-0.12;70.52
69780;BME280;57052;55.602;38.096;2023-01-15T00:13:58;101149.50;;;0.03;70.67
69780;BME280;57052;55.602;38.096;2023-01-15T00:16:24;101155.50;;;0.05;70.84
69780;BME280;57052;55.602;38.096;2023-01-15T00:18:52;101151.72;;;-0.01;70.65
69780;BME280;57052;55.602;38.096;2023-01-15T00:21:19;101150.97;;;0.05;70.28
69780;BME280;57052;55.602;38.096;2023-01-15T00:23:46;101155.41;;;0.13;70.72
69780;BME280;57052;55.602;38.096;2023-01-15T00:26:31;101155.06;;;0.16;70.57
69780;BME280;57052;55.602;38.096;2023-01-15T00:29:16;101150.66;;;0.23;70.45
69780;BME280;57052;55.602;38.096;2023-01-15T00:31:42;101151.13;;;0.26;70.41
69780;BME280;57052;55.602;38.096;2023-01-15T00:34:08;101143.34;;;0.25;70.31
69780;BME280;57052;55.602;38.096;2023-01-15T00:36:34;101148.66;;;0.25;70.08
69780;BME280;57052;55.602;38.096;2023-01-15T00:39:03;101149.66;;;0.24;70.08
69780;BME280;57052;55.602;38.096;2023-01-15T00:41:28;101148.47;;;0.26;70.17
69780;BME280;57052;55.602;38.096;2023-01-15T00:43:54;101145.28;;;0.31;70.12
69780;BME280;57052;55.602;38.096;2023-01-15T00:46:21;101148.56;;;0.33;69.99
69780;BME280;57052;55.602;38.096;2023-01-15T00:48:46;101133.34;;;0.27;69.94
69780;BME280;57052;55.602;38.096;2023-01-15T00:51:12;101133.63;;;0.32;69.90
69780;BME280;57052;55.602;38.096;2023-01-15T00:53:38;101133.50;;;0.25;69.89
69780;BME280;57052;55.602;38.096;2023-01-15T00:56:03;101134.34;;;0.26;70.02
69780;BME280;57052;55.602;38.096;2023-01-15T00:58:29;101132.75;;;0.17;70.16
69780;BME280;57052;55.602;38.096;2023-01-15T01:00:56;101127.25;;;0.18;70.15
69780;BME280;57052;55.602;38.096;2023-01-15T01:03:23;101118.81;;;0.15;70.21
69780;BME280;57052;55.602;38.096;2023-01-15T01:05:49;101108.53;;;0.12;70.09
69780;BME280;57052;55.602;38.096;2023-01-15T01:08:15;101100.69;;;0.10;70.06
69780;BME280;57052;55.602;38.096;2023-01-15T01:10:41;101099.50;;;0.13;70.23
69780;BME280;57052;55.602;38.096;2023-01-15T01:13:07;101109.44;;;0.19;70.12
69780;BME280;57052;55.602;38.096;2023-01-15T01:15:33;101114.00;;;0.10;70.51
69780;BME280;57052;55.602;38.096;2023-01-15T01:17:59;101099.22;;;0.08;70.29
69780;BME280;57052;55.602;38.096;2023-01-15T01:20:25;101106.31;;;0.15;70.27
69780;BME280;57052;55.602;38.096;2023-01-15T01:22:51;101110.09;;;0.21;70.10
69780;BME280;57052;55.602;38.096;2023-01-15T01:25:17;101108.81;;;0.17;70.17
69780;BME280;57052;55.602;38.096;2023-01-15T01:27:44;101100.25;;;0.07;70.51
69780;BME280;57052;55.602;38.096;2023-01-15T01:30:10;101114.13;;;0.17;70.06
69780;BME280;57052;55.602;38.096;2023-01-15T01:32:37;101104.31;;;0.17;70.11
69780;BME280;57052;55.602;38.096;2023-01-15T01:35:03;101097.59;;;0.21;70.11
69780;BME280;57052;55.602;38.096;2023-01-15T01:37:29;101099.97;;;0.16;70.13
69780;BME280;57052;55.602;38.096;2023-01-15T01:39:55;101099.63;;;0.19;70.10
69780;BME280;57052;55.602;38.096;2023-01-15T01:42:21;101090.44;;;0.22;70.02
69780;BME280;57052;55.602;38.096;2023-01-15T01:47:15;101080.59;;;0.08;70.02
69780;BME280;57052;55.602;38.096;2023-01-15T01:49:48;101088.22;;;0.11;70.28
69780;BME280;57052;55.602;38.096;2023-01-15T01:52:22;101089.59;;;0.07;70.00
69780;BME280;57052;55.602;38.096;2023-01-15T01:54:50;101089.25;;;0.10;70.22
69780;BME280;57052;55.602;38.096;2023-01-15T01:57:18;101096.19;;;0.11;70.36
69780;BME280;57052;55.602;38.096;2023-01-15T01:59:45;101088.06;;;0.12;70.21
69780;BME280;57052;55.602;38.096;2023-01-15T02:02:12;101078.94;;;0.07;70.53
69780;BME280;57052;55.602;38.096;2023-01-15T02:04:38;101079.03;;;-0.02;70.63
69780;BME280;57052;55.602;38.096;2023-01-15T02:07:05;101082.50;;;-0.01;70.67
69780;BME280;57052;55.602;38.096;2023-01-15T02:09:31;101092.69;;;-0.05;70.68
69780;BME280;57052;55.602;38.096;2023-01-15T02:12:05;101094.00;;;-0.01;70.68
69780;BME280;57052;55.602;38.096;2023-01-15T02:17:59;101092.69;;;-0.05;70.30
69780;BME280;57052;55.602;38.096;2023-01-15T02:20:45;101084.88;;;-0.06;70.47
69780;BME280;57052;55.602;38.096;2023-01-15T02:28:56;101084.41;;;-0.10;70.72
69780;BME280;57052;55.602;38.096;2023-01-15T02:31:33;101088.38;;;-0.06;70.84
69780;BME280;57052;55.602;38.096;2023-01-15T02:36:36;101084.69;;;-0.05;70.38
69780;BME280;57052;55.602;38.096;2023-01-15T02:39:06;101074.34;;;0.00;70.38
69780;BME280;57052;55.602;38.096;2023-01-15T02:41:38;101078.03;;;-0.01;70.53
69780;BME280;57052;55.602;38.096;2023-01-15T02:44:07;101076.63;;;-0.11;70.57
69780;BME280;57052;55.602;38.096;2023-01-15T02:46:35;101065.97;;;-0.11;70.49
69780;BME280;57052;55.602;38.096;2023-01-15T02:49:04;101073.69;;;-0.02;70.53
69780;BME280;57052;55.602;38.096;2023-01-15T02:51:37;101086.28;;;0.05;70.49
69780;BME280;57052;55.602;38.096;2023-01-15T02:54:09;101085.75;;;0.09;70.44
69780;BME280;57052;55.602;38.096;2023-01-15T02:56:39;101081.91;;;0.12;70.10
69780;BME280;57052;55.602;38.096;2023-01-15T02:59:10;101090.72;;;0.12;70.43
69780;BME280;57052;55.602;38.096;2023-01-15T03:01:47;101076.28;;;0.07;70.16
69780;BME280;57052;55.602;38.096;2023-01-15T03:04:50;101085.19;;;0.14;70.22
69780;BME280;57052;55.602;38.096;2023-01-15T03:07:24;101088.50;;;0.16;69.87
69780;BME280;57052;55.602;38.096;2023-01-15T03:09:52;101086.00;;;-0.01;70.50
69780;BME280;57052;55.602;38.096;2023-01-15T03:15:10;101077.63;;;0.03;70.50
69780;BME280;57052;55.602;38.096;2023-01-15T03:18:00;101072.44;;;0.09;70.06
69780;BME280;57052;55.602;38.096;2023-01-15T03:20:28;101076.56;;;0.12;70.01
69780;BME280;57052;55.602;38.096;2023-01-15T03:22:58;101077.75;;;0.09;70.05
69780;BME280;57052;55.602;38.096;2023-01-15T03:25:29;101082.97;;;0.03;70.04
69780;BME280;57052;55.602;38.096;2023-01-15T03:28:00;101087.94;;;0.06;69.97
69780;BME280;57052;55.602;38.096;2023-01-15T03:30:28;101088.22;;;0.11;70.03
69780;BME280;57052;55.602;38.096;2023-01-15T03:32:54;101077.84;;;0.01;70.25
69780;BME280;57052;55.602;38.096;2023-01-15T03:38:14;101085.81;;;0.01;70.37
69780;BME280;57052;55.602;38.096;2023-01-15T03:41:13;101088.19;;;-0.04;70.16
69780;BME280;57052;55.602;38.096;2023-01-15T03:43:46;101090.31;;;0.00;70.37
69780;BME280;57052;55.602;38.096;2023-01-15T03:46:43;101080.50;;;0.01;70.15
69780;BME280;57052;55.602;38.096;2023-01-15T03:57:50;101100.53;;;0.12;69.66
69780;BME280;57052;55.602;38.096;2023-01-15T04:00:27;101105.31;;;0.16;69.52
69780;BME280;57052;55.602;38.096;2023-01-15T04:02:56;101104.13;;;0.19;69.86
69780;BME280;57052;55.602;38.096;2023-01-15T04:05:25;101106.44;;;0.22;69.74
69780;BME280;57052;55.602;38.096;2023-01-15T04:07:53;101104.06;;;0.27;69.80
69780;BME280;57052;55.602;38.096;2023-01-15T04:10:21;101095.78;;;0.22;69.55
69780;BME280;57052;55.602;38.096;2023-01-15T04:12:47;101092.56;;;0.26;69.56
69780;BME280;57052;55.602;38.096;2023-01-15T04:15:14;101103.13;;;0.20;69.83
69780;BME280;57052;55.602;38.096;2023-01-15T04:17:40;101103.75;;;0.22;69.64
69780;BME280;57052;55.602;38.096;2023-01-15T04:20:07;101110.44;;;0.18;69.72
69780;BME280;57052;55.602;38.096;2023-01-15T04:22:33;101097.59;;;0.21;69.57
69780;BME280;57052;55.602;38.096;2023-01-15T04:25:01;101077.69;;;0.17;69.97
69780;BME280;57052;55.602;38.096;2023-01-15T04:27:27;101092.09;;;0.23;69.67
69780;BME280;57052;55.602;38.096;2023-01-15T04:29:52;101095.22;;;0.12;69.79
69780;BME280;57052;55.602;38.096;2023-01-15T04:32:18;101086.19;;;0.13;69.75
69780;BME280;57052;55.602;38.096;2023-01-15T04:34:44;101088.75;;;0.06;69.82
69780;BME280;57052;55.602;38.096;2023-01-15T04:37:09;101095.00;;;0.13;69.91
69780;BME280;57052;55.602;38.096;2023-01-15T04:39:35;101088.34;;;0.17;69.78
69780;BME280;57052;55.602;38.096;2023-01-15T04:42:01;101074.19;;;0.02;70.08
69780;BME280;57052;55.602;38.096;2023-01-15T04:44:45;101097.28;;;0.02;69.92
69780;BME280;57052;55.602;38.096;2023-01-15T04:47:10;101096.94;;;0.05;69.87
69780;BME280;57052;55.602;38.096;2023-01-15T04:49:36;101097.03;;;0.11;69.69
69780;BME280;57052;55.602;38.096;2023-01-15T04:52:02;101103.75;;;0.07;69.75
69780;BME280;57052;55.602;38.096;2023-01-15T04:54:28;101092.22;;;-0.08;70.02
69780;BME280;57052;55.602;38.096;2023-01-15T04:56:54;101103.44;;;0.02;69.70
69780;BME280;57052;55.602;38.096;2023-01-15T04:59:24;101109.13;;;-0.01;69.96
69780;BME280;57052;55.602;38.096;2023-01-15T05:01:50;101109.97;;;-0.01;69.68
69780;BME280;57052;55.602;38.096;2023-01-15T05:04:16;101093.34;;;-0.03;69.86
69780;BME280;57052;55.602;38.096;2023-01-15T05:06:42;101096.28;;;0.03;70.05
69780;BME280;57052;55.602;38.096;2023-01-15T05:09:08;101104.94;;;0.05;69.77
69780;BME280;57052;55.602;38.096;2023-01-15T05:11:35;101090.78;;;0.04;69.63
69780;BME280;57052;55.602;38.096;2023-01-15T05:14:01;101081.31;;;0.02;69.27
69780;BME280;57052;55.602;38.096;2023-01-15T05:16:27;101092.53;;;0.12;69.76
69780;BME280;57052;55.602;38.096;2023-01-15T05:18:59;101094.66;;;0.16;69.62
69780;BME280;57052;55.602;38.096;2023-01-15T05:21:31;101097.13;;;0.18;69.73
69780;BME280;57052;55.602;38.096;2023-01-15T05:23:58;101095.75;;;0.07;69.70
69780;BME280;57052;55.602;38.096;2023-01-15T05:26:25;101087.56;;;0.09;69.60
69780;BME280;57052;55.602;38.096;2023-01-15T05:28:55;101086.94;;;0.07;69.34
69780;BME280;57052;55.602;38.096;2023-01-15T05:31:22;101077.00;;;0.00;69.73
69780;BME280;57052;55.602;38.096;2023-01-15T05:33:49;101086.59;;;0.10;69.64
69780;BME280;57052;55.602;38.096;2023-01-15T05:36:17;101087.88;;;0.14;69.52
69780;BME280;57052;55.602;38.096;2023-01-15T05:38:43;101078.94;;;0.07;69.50
69780;BME280;57052;55.602;38.096;2023-01-15T05:41:14;101087.03;;;0.13;69.56
69780;BME280;57052;55.602;38.096;2023-01-15T05:44:00;101087.94;;;0.06;69.57
69780;BME280;57052;55.602;38.096;2023-01-15T05:46:27;101080.22;;;0.11;69.47
69780;BME280;57052;55.602;38.096;2023-01-15T05:48:52;101085.56;;;0.11;69.45
69780;BME280;57052;55.602;38.096;2023-01-15T05:51:18;101094.03;;;0.14;69.34
69780;BME280;57052;55.602;38.096;2023-01-15T05:53:43;101087.88;;;0.14;69.40
69780;BME280;57052;55.602;38.096;2023-01-15T05:56:09;101092.19;;;0.15;69.31
69780;BME280;57052;55.602;38.096;2023-01-15T05:58:35;101084.91;;;0.09;69.53
69780;BME280;57052;55.602;38.096;2023-01-15T06:01:08;101092.19;;;0.15;69.49
69780;BME280;57052;55.602;38.096;2023-01-15T06:03:34;101099.88;;;0.10;69.38
69780;BME280;57052;55.602;38.096;2023-01-15T06:06:00;101095.00;;;0.13;69.43
69780;BME280;57052;55.602;38.096;2023-01-15T06:08:26;101093.19;;;0.14;69.42
69780;BME280;57052;55.602;38.096;2023-01-15T06:10:51;101092.00;;;0.16;69.18
69780;BME280;57052;55.602;38.096;2023-01-15T06:13:17;101094.75;;;0.23;69.09
69780;BME280;57052;55.602;38.096;2023-01-15T06:15:43;101082.91;;;0.25;69.25
69780;BME280;57052;55.602;38.096;2023-01-15T06:18:10;101094.22;;;0.27;69.18
69780;BME280;57052;55.602;38.096;2023-01-15T06:20:37;101094.13;;;0.21;69.35
69780;BME280;57052;55.602;38.096;2023-01-15T06:23:03;101081.06;;;0.11;68.85
69780;BME280;57052;55.602;38.096;2023-01-15T06:25:28;101093.28;;;0.20;69.12
69780;BME280;57052;55.602;38.096;2023-01-15T06:27:54;101098.09;;;0.25;69.29
69780;BME280;57052;55.602;38.096;2023-01-15T06:30:20;101095.13;;;0.20;69.14
69780;BME280;57052;55.602;38.096;2023-01-15T06:32:45;101096.78;;;0.21;69.09
69780;BME280;57052;55.602;38.096;2023-01-15T06:35:11;101091.34;;;0.14;69.12
69780;BME280;57052;55.602;38.096;2023-01-15T06:37:38;101087.03;;;0.13;69.46
69780;BME280;57052;55.602;38.096;2023-01-15T06:40:04;101067.09;;;-0.06;69.65
69780;BME280;57052;55.602;38.096;2023-01-15T06:42:30;101097.38;;;0.08;69.27
69780;BME280;57052;55.602;38.096;2023-01-15T06:45:15;101081.41;;;0.08;69.15
69780;BME280;57052;55.602;38.096;2023-01-15T06:47:59;101071.25;;;0.12;69.19
69780;BME280;57052;55.602;38.096;2023-01-15T06:50:24;101077.59;;;0.25;69.24
69780;BME280;57052;55.602;38.096;2023-01-15T06:52:50;101083.31;;;0.22;69.38
69780;BME280;57052;55.602;38.096;2023-01-15T06:55:16;101081.34;;;0.16;69.26
69780;BME280;57052;55.602;38.096;2023-01-15T06:57:43;101083.38;;;0.14;69.00
69780;BME280;57052;55.602;38.096;2023-01-15T07:00:09;101078.97;;;0.21;69.09
69780;BME280;57052;55.602;38.096;2023-01-15T07:02:35;101073.66;;;0.21;69.35
69780;BME280;57052;55.602;38.096;2023-01-15T07:05:01;101080.25;;;0.25;69.08
69780;BME280;57052;55.602;38.096;2023-01-15T07:07:29;101090.75;;;0.27;68.80
69780;BME280;57052;55.602;38.096;2023-01-15T07:09:55;101097.63;;;0.36;68.97
69780;BME280;57052;55.602;38.096;2023-01-15T07:12:21;101085.13;;;0.22;68.96
69780;BME280;57052;55.602;38.096;2023-01-15T07:14:47;101089.06;;;0.26;69.40
69780;BME280;57052;55.602;38.096;2023-01-15T07:17:13;101079.06;;;0.28;69.05
69780;BME280;57052;55.602;38.096;2023-01-15T07:19:39;101105.06;;;0.40;68.82
69780;BME280;57052;55.602;38.096;2023-01-15T07:22:06;101105.47;;;0.52;68.68
69780;BME280;57052;55.602;38.096;2023-01-15T07:24:32;101108.75;;;0.54;68.43
69780;BME280;57052;55.602;38.096;2023-01-15T07:26:58;101106.91;;;0.40;68.61
69780;BME280;57052;55.602;38.096;2023-01-15T07:29:24;101117.56;;;0.40;68.69
69780;BME280;57052;55.602;38.096;2023-01-15T07:31:50;101118.22;;;0.42;68.50
69780;BME280;57052;55.602;38.096;2023-01-15T07:34:15;101119.22;;;0.41;68.57
69780;BME280;57052;55.602;38.096;2023-01-15T07:36:41;101106.34;;;0.30;69.02
69780;BME280;57052;55.602;38.096;2023-01-15T07:39:09;101115.75;;;0.18;68.91
69780;BME280;57052;55.602;38.096;2023-01-15T07:41:35;101124.13;;;0.15;68.92
69780;BME280;57052;55.602;38.096;2023-01-15T07:44:19;101123.75;;;0.18;69.00
69780;BME280;57052;55.602;38.096;2023-01-15T07:47:13;101112.53;;;0.08;68.85
69780;BME280;57052;55.602;38.096;2023-01-15T07:49:58;101117.16;;;0.14;68.92
69780;BME280;57052;55.602;38.096;2023-01-15T07:52:24;101112.19;;;0.11;69.15
69780;BME280;57052;55.602;38.096;2023-01-15T07:54:50;101108.25;;;0.21;68.96
69780;BME280;57052;55.602;38.096;2023-01-15T07:57:19;101114.84;;;0.25;68.95
69780;BME280;57052;55.602;38.096;2023-01-15T07:59:45;101108.16;;;0.15;69.00
69780;BME280;57052;55.602;38.096;2023-01-15T08:02:10;101107.13;;;0.16;68.95
69780;BME280;57052;55.602;38.096;2023-01-15T08:04:37;101104.13;;;0.19;69.04
69780;BME280;57052;55.602;38.096;2023-01-15T08:07:03;101088.63;;;0.22;68.86
69780;BME280;57052;55.602;38.096;2023-01-15T08:09:29;101092.38;;;0.28;68.73
69780;BME280;57052;55.602;38.096;2023-01-15T08:11:58;101095.50;;;0.31;68.63
69780;BME280;57052;55.602;38.096;2023-01-15T08:14:42;101097.97;;;0.33;68.65
69780;BME280;57052;55.602;38.096;2023-01-15T08:17:29;101083.81;;;0.18;68.53
69780;BME280;57052;55.602;38.096;2023-01-15T08:19:55;101079.53;;;0.17;68.98
69780;BME280;57052;55.602;38.096;2023-01-15T08:22:21;101084.50;;;0.20;68.89
69780;BME280;57052;55.602;38.096;2023-01-15T08:24:46;101079.63;;;0.23;68.57
69780;BME280;57052;55.602;38.096;2023-01-15T08:27:12;101070.28;;;0.27;68.73
69780;BME280;57052;55.602;38.096;2023-01-15T08:29:38;101070.56;;;0.32;68.55
69780;BME280;57052;55.602;38.096;2023-01-15T08:32:04;101078.34;;;0.34;68.46
69780;BME280;57052;55.602;38.096;2023-01-15T08:34:30;101080.47;;;0.38;68.38
69780;BME280;57052;55.602;38.096;2023-01-15T08:36:56;101073.22;;;0.32;68.90
69780;BME280;57052;55.602;38.096;2023-01-15T08:39:28;101083.94;;;0.39;68.37
69780;BME280;57052;55.602;38.096;2023-01-15T08:41:54;101078.91;;;0.44;67.95
69780;BME280;57052;55.602;38.096;2023-01-15T08:44:21;101088.00;;;0.35;68.47
69780;BME280;57052;55.602;38.096;2023-01-15T08:46:48;101071.06;;;0.28;68.43
69780;BME280;57052;55.602;38.096;2023-01-15T08:49:14;101062.09;;;0.29;68.12
69780;BME280;57052;55.602;38.096;2023-01-15T08:51:40;101067.69;;;0.34;68.34
69780;BME280;57052;55.602;38.096;2023-01-15T08:54:06;101044.91;;;0.31;68.38
69780;BME280;57052;55.602;38.096;2023-01-15T08:56:32;101058.44;;;0.44;68.30
69780;BME280;57052;55.602;38.096;2023-01-15T08:58:57;101069.00;;;0.52;68.05
69780;BME280;57052;55.602;38.096;2023-01-15T09:01:23;101079.38;;;0.62;68.16
69780;BME280;57052;55.602;38.096;2023-01-15T09:03:49;101065.50;;;0.52;67.97
69780;BME280;57052;55.602;38.096;2023-01-15T09:06:14;101064.94;;;0.56;68.18
69780;BME280;57052;55.602;38.096;2023-01-15T09:08:40;101042.38;;;0.52;67.74
69780;BME280;57052;55.602;38.096;2023-01-15T09:11:06;101068.44;;;0.72;67.74
69780;BME280;57052;55.602;38.096;2023-01-15T09:13:37;101069.53;;;0.77;67.75
69780;BME280;57052;55.602;38.096;2023-01-15T09:16:05;101053.72;;;0.76;67.82
69780;BME280;57052;55.602;38.096;2023-01-15T09:18:32;101057.53;;;0.88;67.47
69780;BME280;57052;55.602;38.096;2023-01-15T09:20:58;101062.25;;;0.86;67.14
69780;BME280;57052;55.602;38.096;2023-01-15T09:23:24;101058.59;;;0.87;67.14
69780;BME280;57052;55.602;38.096;2023-01-15T09:25:54;101065.28;;;0.97;67.07
69780;BME280;57052;55.602;38.096;2023-01-15T09:28:20;101071.03;;;1.01;67.12
69780;BME280;57052;55.602;38.096;2023-01-15T09:30:45;101055.28;;;0.85;66.67
69780;BME280;57052;55.602;38.096;2023-01-15T09:33:11;101051.41;;;0.87;66.67
69780;BME280;57052;55.602;38.096;2023-01-15T09:35:37;101071.97;;;0.93;66.87
69780;BME280;57052;55.602;38.096;2023-01-15T09:38:03;101061.94;;;0.95;66.89
69780;BME280;57052;55.602;38.096;2023-01-15T09:40:46;101062.22;;;1.00;66.95
69780;BME280;57052;55.602;38.096;2023-01-15T09:46:16;101066.59;;;1.08;66.24
69780;BME280;57052;55.602;38.096;2023-01-15T09:51:30;101063.41;;;1.12;66.10
69780;BME280;57052;55.602;38.096;2023-01-15T09:56:33;101048.34;;;1.05;67.15
69780;BME280;57052;55.602;38.096;2023-01-15T09:59:05;101047.56;;;1.11;66.41
69780;BME280;57052;55.602;38.096;2023-01-15T10:01:37;101048.88;;;1.15;66.66
69780;BME280;57052;55.602;38.096;2023-01-15T10:04:08;101042.78;;;1.21;66.85
69780;BME280;57052;55.602;38.096;2023-01-15T10:09:16;101045.38;;;1.14;66.25
69780;BME280;57052;55.602;38.096;2023-01-15T10:11:56;101051.34;;;1.16;65.98
69780;BME280;57052;55.602;38.096;2023-01-15T10:14:47;101055.66;;;1.17;65.75
69780;BME280;57052;55.602;38.096;2023-01-15T10:17:27;101043.13;;;1.18;65.50
69780;BME280;57052;55.602;38.096;2023-01-15T10:19:53;101049.13;;;1.20;66.49
69780;BME280;57052;55.602;38.096;2023-01-15T10:25:16;101049.19;;;1.26;66.38
69780;BME280;57052;55.602;38.096;2023-01-15T10:27:46;101040.41;;;1.11;65.96
69780;BME280;57052;55.602;38.096;2023-01-15T10:30:20;101030.13;;;1.08;66.13
69780;BME280;57052;55.602;38.096;2023-01-15T10:32:56;101043.44;;;1.08;65.72
69780;BME280;57052;55.602;38.096;2023-01-15T10:35:39;101042.88;;;1.13;65.44
69780;BME280;57052;55.602;38.096;2023-01-15T10:38:27;101048.25;;;0.98;65.83
69780;BME280;57052;55.602;38.096;2023-01-15T10:46:15;101040.03;;;1.14;66.28
69780;BME280;57052;55.602;38.096;2023-01-15T10:49:04;101030.31;;;1.07;65.74
69780;BME280;57052;55.602;38.096;2023-01-15T10:51:37;101045.41;;;1.00;66.11
69780;BME280;57052;55.602;38.096;2023-01-15T10:54:13;101034.03;;;0.91;65.94
69780;BME280;57052;55.602;38.096;2023-01-15T10:59:47;101032.75;;;0.87;66.20
69780;BME280;57052;55.602;38.096;2023-01-15T11:02:32;101036.75;;;0.98;66.23
69780;BME280;57052;55.602;38.096;2023-01-15T11:05:02;101032.78;;;1.08;66.45
69780;BME280;57052;55.602;38.096;2023-01-15T11:07:41;101028.84;;;1.04;65.82
69780;BME280;57052;55.602;38.096;2023-01-15T11:10:10;101028.28;;;1.09;66.50
69780;BME280;57052;55.602;38.096;2023-01-15T11:12:56;101023.53;;;1.04;65.75
69780;BME280;57052;55.602;38.096;2023-01-15T11:15:45;101026.03;;;0.91;65.90
69780;BME280;57052;55.602;38.096;2023-01-15T11:18:35;101018.88;;;0.92;66.14
69780;BME280;57052;55.602;38.096;2023-01-15T11:21:22;101024.09;;;1.00;66.36
69780;BME280;57052;55.602;38.096;2023-01-15T11:23:49;101024.53;;;1.03;66.45
69780;BME280;57052;55.602;38.096;2023-01-15T11:26:21;101038.63;;;1.18;65.85
69780;BME280;57052;55.602;38.096;2023-01-15T11:28:48;101036.69;;;1.27;65.70
69780;BME280;57052;55.602;38.096;2023-01-15T11:31:15;101022.13;;;1.08;66.16
69780;BME280;57052;55.602;38.096;2023-01-15T11:34:02;101016.63;;;1.10;65.43
69780;BME280;57052;55.602;38.096;2023-01-15T11:36:29;101018.44;;;1.09;66.20
69780;BME280;57052;55.602;38.096;2023-01-15T11:38:55;101014.38;;;1.13;65.86
69780;BME280;57052;55.602;38.096;2023-01-15T11:41:32;100986.47;;;1.09;65.77
69780;BME280;57052;55.602;38.096;2023-01-15T11:44:18;101001.31;;;1.18;66.14
69780;BME280;57052;55.602;38.096;2023-01-15T11:47:12;100987.59;;;1.21;65.83
69780;BME280;57052;55.602;38.096;2023-01-15T11:49:56;100999.72;;;1.24;66.03
69780;BME280;57052;55.602;38.096;2023-01-15T11:53:07;101007.16;;;1.07;64.52
69780;BME280;57052;55.602;38.096;2023-01-15T11:55:34;100999.69;;;1.17;65.29
69780;BME280;57052;55.602;38.096;2023-01-15T11:58:00;100984.81;;;1.08;65.40
69780;BME280;57052;55.602;38.096;2023-01-15T12:00:29;100996.09;;;1.10;65.72
69780;BME280;57052;55.602;38.096;2023-01-15T12:03:17;100979.28;;;1.10;64.81
69780;BME280;57052;55.602;38.096;2023-01-15T12:06:06;100971.31;;;1.10;64.90
69780;BME280;57052;55.602;38.096;2023-01-15T12:14:49;100960.94;;;1.21;65.20
69780;BME280;57052;55.602;38.096;2023-01-15T12:17:30;100971.22;;;1.24;65.10
69780;BME280;57052;55.602;38.096;2023-01-15T12:25:42;100976.81;;;1.08;65.53
69780;BME280;57052;55.602;38.096;2023-01-15T12:28:13;100976.47;;;0.97;65.72
69780;BME280;57052;55.602;38.096;2023-01-15T12:35:50;100976.91;;;1.00;65.33
69780;BME280;57052;55.602;38.096;2023-01-15T12:38:37;100971.59;;;1.00;65.24
69780;BME280;57052;55.602;38.096;2023-01-15T12:41:21;100972.50;;;1.07;65.18
69780;BME280;57052;55.602;38.096;2023-01-15T12:43:53;100965.72;;;1.05;65.15
69780;BME280;57052;55.602;38.096;2023-01-15T12:46:41;100968.06;;;1.14;65.55
69780;BME280;57052;55.602;38.096;2023-01-15T12:49:39;100976.69;;;1.16;64.65
69780;BME280;57052;55.602;38.096;2023-01-15T12:52:09;100979.47;;;1.08;65.15
69780;BME280;57052;55.602;38.096;2023-01-15T12:54:46;100980.94;;;1.11;65.38
69780;BME280;57052;55.602;38.096;2023-01-15T12:57:36;100978.47;;;1.09;64.73
69780;BME280;57052;55.602;38.096;2023-01-15T13:00:35;100970.91;;;1.13;65.18
69780;BME280;57052;55.602;38.096;2023-01-15T13:06:11;100973.75;;;1.11;65.20
69780;BME280;57052;55.602;38.096;2023-01-15T13:11:12;100970.63;;;1.08;65.44
69780;BME280;57052;55.602;38.096;2023-01-15T13:13:40;100989.00;;;1.17;65.21
69780;BME280;57052;55.602;38.096;2023-01-15T13:16:22;100991.69;;;1.17;64.51
69780;BME280;57052;55.602;38.096;2023-01-15T13:21:20;100985.84;;;1.07;65.03
69780;BME280;57052;55.602;38.096;2023-01-15T13:32:02;101017.41;;;1.10;64.77
69780;BME280;57052;55.602;38.096;2023-01-15T13:35:10;101021.84;;;1.03;64.36
69780;BME280;57052;55.602;38.096;2023-01-15T13:37:46;101001.41;;;0.89;64.55
69780;BME280;57052;55.602;38.096;2023-01-15T13:40:25;101023.25;;;0.99;65.49
69780;BME280;57052;55.602;38.096;2023-01-15T13:42:52;101011.56;;;1.00;65.33
69780;BME280;57052;55.602;38.096;2023-01-15T13:45:39;101006.63;;;0.97;64.80
69780;BME280;57052;55.602;38.096;2023-01-15T13:48:36;101010.31;;;0.96;64.65
69780;BME280;57052;55.602;38.096;2023-01-15T13:51:05;101018.38;;;1.03;65.29
69780;BME280;57052;55.602;38.096;2023-01-15T13:53:46;101007.91;;;1.01;65.09
69780;BME280;57052;55.602;38.096;2023-01-15T13:56:18;101016.16;;;1.06;64.89
69780;BME280;57052;55.602;38.096;2023-01-15T13:58:55;101031.53;;;1.04;64.96
69780;BME280;57052;55.602;38.096;2023-01-15T14:04:12;101028.06;;;0.89;64.65
69780;BME280;57052;55.602;38.096;2023-01-15T14:06:51;101030.44;;;0.99;64.71
69780;BME280;57052;55.602;38.096;2023-01-15T14:20:33;101021.34;;;0.93;64.22
69780;BME280;57052;55.602;38.096;2023-01-15T14:36:29;101025.56;;;0.88;64.52
69780;BME280;57052;55.602;38.096;2023-01-15T14:39:00;101045.31;;;0.93;65.24
69780;BME280;57052;55.602;38.096;2023-01-15T14:41:30;101034.28;;;0.96;64.94
69780;BME280;57052;55.602;38.096;2023-01-15T14:43:59;101035.28;;;0.95;65.16
69780;BME280;57052;55.602;38.096;2023-01-15T14:46:32;101047.34;;;0.91;65.05
69780;BME280;57052;55.602;38.096;2023-01-15T14:48:59;101044.69;;;0.91;64.75
69780;BME280;57052;55.602;38.096;2023-01-15T14:51:27;101038.25;;;0.86;64.95
69780;BME280;57052;55.602;38.096;2023-01-15T14:53:57;101035.25;;;0.74;65.12
69780;BME280;57052;55.602;38.096;2023-01-15T14:56:31;101035.91;;;0.76;65.11
69780;BME280;57052;55.602;38.096;2023-01-15T14:59:13;101032.88;;;0.79;65.11
69780;BME280;57052;55.602;38.096;2023-01-15T15:01:49;101038.19;;;0.79;65.19